Time;durP1;ratioP1;P1;durP2;ratioP2;P2;SDS_P1;SDS_P2;PMS_P1;PMS_P2;Temp;Humidity;BMP_temperature;BMP_pressure;BME280_temperature;BME280_humidity;BME280_pressure;Samples;Min_cycle;Max_cycle;Signal;HPM_P1;HPM_P2
2022/08/14 00:01:59;;;;;;;5.72;2.65;;;;;;;;;;5083886;28;20051;-82
2022/08/14 00:04:44;;;;;;;7.80;3.40;;;;;;;;;;5076213;28;20502;-80
2022/08/14 00:07:30;;;;;;;3.90;2.70;;;;;;;;;;5082023;28;20028;-80
2022/08/14 00:10:18;;;;;;;5.15;2.72;;;;;;;;;;5077482;28;20111;-80
2022/08/14 00:13:04;;;;;;;4.55;2.63;;;;;;;;;;5069219;28;20483;-81
2022/08/14 00:15:50;;;;;;;5.45;2.40;;;;;;;;;;5081377;28;20028;-80
2022/08/14 00:18:36;;;;;;;6.07;2.80;;;;;;;;;;5074837;28;20510;-82
2022/08/14 00:21:21;;;;;;;3.33;2.60;;;;;;;;;;5075466;28;20055;-75
2022/08/14 00:24:07;;;;;;;4.60;2.33;;;;;;;;;;5066213;28;20025;-75
2022/08/14 00:26:52;;;;;;;2.75;2.42;;;;;;;;;;5083914;28;20032;-75
2022/08/14 00:29:38;;;;;;;4.57;3.10;;;;;;;;;;5078234;28;20040;-74
2022/08/14 00:32:24;;;;;;;4.03;2.67;;;;;;;;;;5089074;28;20119;-75
2022/08/14 00:35:10;;;;;;;6.10;3.42;;;;;;;;;;5090049;28;20451;-72
2022/08/14 00:37:56;;;;;;;7.43;3.60;;;;;;;;;;5093851;28;20467;-72
2022/08/14 00:40:42;;;;;;;5.40;3.80;;;;;;;;;;5085673;28;20390;-72
2022/08/14 00:43:28;;;;;;;7.13;3.40;;;;;;;;;;5076957;28;20091;-71
2022/08/14 00:46:14;;;;;;;6.50;3.35;;;;;;;;;;5089887;28;20035;-73
2022/08/14 00:48:59;;;;;;;5.50;2.83;;;;;;;;;;5084323;28;20062;-72
2022/08/14 00:51:45;;;;;;;3.95;2.78;;;;;;;;;;5053679;28;20044;-72
2022/08/14 00:54:30;;;;;;;4.60;2.88;;;;;;;;;;5084558;28;20103;-71
2022/08/14 00:57:17;;;;;;;5.45;2.72;;;;;;;;;;5089830;28;20046;-74
2022/08/14 01:00:11;;;;;;;4.75;2.80;;;;;;;;;;5087060;28;20035;-75
2022/08/14 01:02:57;;;;;;;4.22;2.92;;;;;;;;;;5087706;28;20035;-74
2022/08/14 01:05:48;;;;;;;3.05;2.60;;;;;;;;;;5064922;28;20051;-74
2022/08/14 01:08:35;;;;;;;6.43;2.40;;;;;;;;;;5085623;28;20036;-73
2022/08/14 01:11:21;;;;;;;6.05;2.78;;;;;;;;;;5076884;28;20375;-78
2022/08/14 01:14:06;;;;;;;5.35;2.88;;;;;;;;;;5065845;28;20079;-71
2022/08/14 01:16:52;;;;;;;7.38;2.65;;;;;;;;;;5060403;28;20028;-77
2022/08/14 01:22:44;;;;;;;4.97;2.67;;;;;;;;;;5071641;28;20021;-80
2022/08/14 01:25:30;;;;;;;5.22;2.78;;;;;;;;;;5087730;28;20024;-80
2022/08/14 01:28:15;;;;;;;5.40;2.50;;;;;;;;;;5079985;28;20033;-81
2022/08/14 01:31:04;;;;;;;5.07;2.83;;;;;;;;;;5086267;28;20477;-79
2022/08/14 01:33:52;;;;;;;3.83;2.90;;;;;;;;;;5083169;28;20028;-72
2022/08/14 01:36:37;;;;;;;4.75;2.17;;;;;;;;;;5064859;28;20475;-72
2022/08/14 01:39:24;;;;;;;3.70;2.47;;;;;;;;;;5076342;28;20024;-71
2022/08/14 01:42:10;;;;;;;3.10;2.22;;;;;;;;;;5059101;28;20021;-72
2022/08/14 01:44:57;;;;;;;5.35;3.22;;;;;;;;;;5072292;28;20089;-72
2022/08/14 01:47:42;;;;;;;4.55;2.53;;;;;;;;;;5086824;28;20376;-72
2022/08/14 01:50:28;;;;;;;3.92;2.70;;;;;;;;;;5083646;28;20024;-74
2022/08/14 01:53:14;;;;;;;4.85;3.08;;;;;;;;;;5089040;28;20525;-76
2022/08/14 01:56:03;;;;;;;3.45;2.20;;;;;;;;;;5070132;28;20029;-76
2022/08/14 01:58:48;;;;;;;3.65;2.78;;;;;;;;;;5072342;28;20028;-75
2022/08/14 02:01:34;;;;;;;3.53;2.50;;;;;;;;;;5070517;28;20043;-76
2022/08/14 02:04:20;;;;;;;5.30;2.63;;;;;;;;;;5078190;28;20035;-76
2022/08/14 02:07:08;;;;;;;6.22;2.35;;;;;;;;;;5085023;28;20055;-82
2022/08/14 02:09:53;;;;;;;4.47;2.35;;;;;;;;;;5058017;28;20148;-75
2022/08/14 02:12:39;;;;;;;2.70;2.30;;;;;;;;;;5051558;28;20111;-74
2022/08/14 02:15:25;;;;;;;4.60;2.63;;;;;;;;;;5087579;28;20082;-75
2022/08/14 02:18:10;;;;;;;4.40;2.70;;;;;;;;;;5077558;28;20032;-75
2022/08/14 02:20:57;;;;;;;3.92;2.60;;;;;;;;;;5084362;28;20482;-74
2022/08/14 02:23:45;;;;;;;4.63;3.08;;;;;;;;;;5074453;28;20029;-74
2022/08/14 02:26:32;;;;;;;4.68;2.78;;;;;;;;;;5071271;28;20043;-75
2022/08/14 02:29:21;;;;;;;4.47;2.55;;;;;;;;;;5084034;28;20532;-75
2022/08/14 02:32:07;;;;;;;4.82;3.00;;;;;;;;;;5086279;28;20028;-75
2022/08/14 02:34:53;;;;;;;5.25;3.42;;;;;;;;;;5076653;28;20032;-75
2022/08/14 02:37:39;;;;;;;4.82;2.70;;;;;;;;;;5079845;28;20153;-75
2022/08/14 02:40:26;;;;;;;4.57;2.70;;;;;;;;;;5068672;28;20047;-75
2022/08/14 02:43:12;;;;;;;3.13;2.47;;;;;;;;;;5060057;28;20067;-75
2022/08/14 02:45:58;;;;;;;3.38;2.40;;;;;;;;;;5075147;28;20024;-74
2022/08/14 02:48:43;;;;;;;3.95;2.50;;;;;;;;;;5078914;28;20032;-75
2022/08/14 02:51:29;;;;;;;5.78;2.72;;;;;;;;;;5073025;28;20032;-75
2022/08/14 02:54:15;;;;;;;4.45;3.00;;;;;;;;;;5089304;28;20278;-76
2022/08/14 02:57:04;;;;;;;5.70;2.92;;;;;;;;;;5078762;28;20024;-75
2022/08/14 02:59:50;;;;;;;3.42;2.50;;;;;;;;;;5081275;28;20024;-75
2022/08/14 03:02:36;;;;;;;5.43;2.55;;;;;;;;;;5065005;28;20036;-72
2022/08/14 03:05:22;;;;;;;5.40;2.55;;;;;;;;;;5080592;28;20036;-82
2022/08/14 03:08:09;;;;;;;3.08;2.47;;;;;;;;;;5079934;28;20367;-83
2022/08/14 03:10:55;;;;;;;3.80;2.78;;;;;;;;;;5052435;28;20259;-83
2022/08/14 03:13:42;;;;;;;7.43;3.30;;;;;;;;;;5053107;28;20033;-84
2022/08/14 03:16:34;;;;;;;3.53;2.17;;;;;;;;;;5088637;28;20059;-81
2022/08/14 03:19:20;;;;;;;5.30;3.20;;;;;;;;;;5083886;28;20029;-82
2022/08/14 03:22:05;;;;;;;4.75;2.83;;;;;;;;;;5083044;28;20039;-71
2022/08/14 03:24:51;;;;;;;3.83;2.75;;;;;;;;;;5091482;28;20039;-75
2022/08/14 03:27:37;;;;;;;6.38;3.55;;;;;;;;;;5090466;28;20046;-75
2022/08/14 03:30:23;;;;;;;5.00;2.30;;;;;;;;;;5065333;28;20024;-76
2022/08/14 03:33:10;;;;;;;4.82;2.80;;;;;;;;;;5073737;28;20028;-75
2022/08/14 03:35:55;;;;;;;3.22;2.90;;;;;;;;;;5093383;28;20043;-74
2022/08/14 03:38:42;;;;;;;4.45;2.83;;;;;;;;;;5073167;28;20138;-75
2022/08/14 03:41:27;;;;;;;5.55;2.58;;;;;;;;;;5090016;28;20028;-75
2022/08/14 03:44:13;;;;;;;3.70;2.63;;;;;;;;;;5088898;28;20035;-82
2022/08/14 03:46:59;;;;;;;5.30;2.90;;;;;;;;;;5077147;28;20048;-83
2022/08/14 03:49:45;;;;;;;4.28;2.92;;;;;;;;;;5089440;28;20477;-82
2022/08/14 03:52:31;;;;;;;5.78;2.70;;;;;;;;;;5090756;28;20024;-82
2022/08/14 03:55:16;;;;;;;7.03;3.08;;;;;;;;;;5075325;28;20033;-83
2022/08/14 03:58:02;;;;;;;4.25;2.80;;;;;;;;;;5069122;28;20021;-81
2022/08/14 04:00:47;;;;;;;3.67;2.78;;;;;;;;;;5071084;28;20379;-75
2022/08/14 04:03:34;;;;;;;3.70;2.80;;;;;;;;;;5088360;28;20521;-75
2022/08/14 04:06:20;;;;;;;4.53;2.90;;;;;;;;;;5074955;28;20017;-74
2022/08/14 04:09:06;;;;;;;4.90;2.95;;;;;;;;;;5050822;28;20024;-75
2022/08/14 04:11:52;;;;;;;8.85;3.50;;;;;;;;;;5075445;28;20024;-74
2022/08/14 04:14:37;;;;;;;2.33;2.10;;;;;;;;;;5090104;28;20056;-74
2022/08/14 04:17:23;;;;;;;3.30;2.70;;;;;;;;;;5058816;28;20025;-75
2022/08/14 04:20:09;;;;;;;7.50;3.03;;;;;;;;;;5054826;28;20028;-74
2022/08/14 04:22:54;;;;;;;7.22;2.97;;;;;;;;;;5079340;28;20122;-74
2022/08/14 04:25:40;;;;;;;4.78;3.30;;;;;;;;;;5092534;28;20068;-74
2022/08/14 04:28:25;;;;;;;5.03;2.42;;;;;;;;;;5062687;28;20101;-74
2022/08/14 04:31:11;;;;;;;4.20;2.55;;;;;;;;;;5073002;28;20027;-74
2022/08/14 04:33:57;;;;;;;6.82;2.88;;;;;;;;;;5075960;28;20123;-84
2022/08/14 04:45:55;;;;;;;4.65;2.95;;;;;;;;;;5089480;28;20028;-82
2022/08/14 04:48:41;;;;;;;4.88;2.60;;;;;;;;;;5061597;28;20081;-83
2022/08/14 04:51:27;;;;;;;4.88;3.03;;;;;;;;;;5084336;28;20047;-83
2022/08/14 04:54:12;;;;;;;4.57;2.65;;;;;;;;;;5079040;28;20057;-71
2022/08/14 04:56:58;;;;;;;5.28;2.75;;;;;;;;;;5079828;28;20036;-83
2022/08/14 04:59:43;;;;;;;3.20;2.47;;;;;;;;;;5089781;28;20024;-83
2022/08/14 05:02:29;;;;;;;6.22;2.83;;;;;;;;;;5090675;28;20024;-82
2022/08/14 05:05:15;;;;;;;4.65;2.83;;;;;;;;;;5075429;28;20036;-83
2022/08/14 05:08:10;;;;;;;3.40;2.70;;;;;;;;;;5058735;28;20021;-82
2022/08/14 05:10:57;;;;;;;3.80;2.53;;;;;;;;;;5051275;28;20024;-81
2022/08/14 05:13:43;;;;;;;3.58;3.00;;;;;;;;;;5078597;28;20028;-74
2022/08/14 05:16:30;;;;;;;4.53;3.25;;;;;;;;;;5077009;28;20035;-74
2022/08/14 05:19:16;;;;;;;3.35;2.40;;;;;;;;;;5080782;28;20399;-74
2022/08/14 05:22:01;;;;;;;3.22;2.58;;;;;;;;;;5055527;28;20437;-75
2022/08/14 05:24:48;;;;;;;3.00;2.70;;;;;;;;;;5074402;28;20028;-75
2022/08/14 05:27:33;;;;;;;6.25;3.08;;;;;;;;;;5087427;28;20555;-75
2022/08/14 05:30:19;;;;;;;5.45;3.38;;;;;;;;;;5062443;28;20021;-81
2022/08/14 05:33:05;;;;;;;6.22;2.42;;;;;;;;;;5059725;28;20286;-75
2022/08/14 05:35:51;;;;;;;4.43;2.67;;;;;;;;;;5081917;28;20066;-75
2022/08/14 05:38:39;;;;;;;4.78;2.72;;;;;;;;;;5075100;28;20047;-75
2022/08/14 05:41:24;;;;;;;4.75;2.90;;;;;;;;;;5075187;28;20106;-75
2022/08/14 05:44:10;;;;;;;3.80;2.65;;;;;;;;;;5080595;28;20083;-75
2022/08/14 05:46:56;;;;;;;4.38;2.67;;;;;;;;;;5065574;28;20030;-75
2022/08/14 05:49:44;;;;;;;3.60;2.45;;;;;;;;;;5081267;28;20169;-75
2022/08/14 05:52:30;;;;;;;6.07;2.97;;;;;;;;;;5076220;28;20056;-74
2022/08/14 05:55:16;;;;;;;4.95;2.90;;;;;;;;;;5082896;28;20383;-74
2022/08/14 05:58:03;;;;;;;3.25;2.50;;;;;;;;;;5078743;28;20399;-75
2022/08/14 06:00:49;;;;;;;5.10;2.55;;;;;;;;;;5053322;28;20028;-73
2022/08/14 06:03:34;;;;;;;4.72;2.72;;;;;;;;;;5085865;28;20469;-74
2022/08/14 06:06:20;;;;;;;5.20;3.83;;;;;;;;;;5083997;28;20024;-83
2022/08/14 06:09:07;;;;;;;4.00;2.47;;;;;;;;;;5065584;28;20048;-73
2022/08/14 06:11:53;;;;;;;2.60;2.10;;;;;;;;;;5076423;28;20028;-73
2022/08/14 06:14:38;;;;;;;2.95;2.60;;;;;;;;;;5059850;28;20025;-72
2022/08/14 06:17:24;;;;;;;3.95;2.63;;;;;;;;;;5084214;28;20370;-72
2022/08/14 06:20:11;;;;;;;3.75;2.42;;;;;;;;;;5078423;28;20032;-74
2022/08/14 06:22:57;;;;;;;4.38;2.38;;;;;;;;;;5062423;28;20463;-73
2022/08/14 06:25:43;;;;;;;5.68;2.70;;;;;;;;;;5086219;28;20395;-75
2022/08/14 06:28:29;;;;;;;3.22;2.53;;;;;;;;;;5090608;28;20031;-81
2022/08/14 06:31:14;;;;;;;3.53;2.20;;;;;;;;;;5077491;28;20036;-82
2022/08/14 06:34:00;;;;;;;6.43;3.33;;;;;;;;;;5078519;28;20032;-82
2022/08/14 06:36:46;;;;;;;5.38;2.78;;;;;;;;;;5071455;28;20040;-82
2022/08/14 06:39:32;;;;;;;3.20;2.15;;;;;;;;;;5081624;28;20046;-83
2022/08/14 06:42:19;;;;;;;4.47;2.60;;;;;;;;;;5081278;28;20438;-83
2022/08/14 06:45:05;;;;;;;6.28;2.60;;;;;;;;;;5069107;28;20170;-74
2022/08/14 06:47:51;;;;;;;8.27;2.50;;;;;;;;;;5079518;28;20040;-73
2022/08/14 06:50:37;;;;;;;5.35;2.30;;;;;;;;;;5087930;28;20099;-73
2022/08/14 06:53:22;;;;;;;5.72;2.03;;;;;;;;;;5061497;28;20040;-72
2022/08/14 06:56:08;;;;;;;5.18;2.40;;;;;;;;;;5075495;28;20031;-73
2022/08/14 06:58:53;;;;;;;4.18;2.30;;;;;;;;;;5065572;28;20036;-73
2022/08/14 07:07:47;;;;;;;4.28;2.80;;;;;;;;;;5071231;28;20032;-73
2022/08/14 07:10:33;;;;;;;2.90;2.35;;;;;;;;;;5060683;28;20059;-74
2022/08/14 07:13:19;;;;;;;5.30;2.50;;;;;;;;;;5087468;28;20063;-73
2022/08/14 07:16:04;;;;;;;4.47;2.53;;;;;;;;;;5059088;28;20025;-74
2022/08/14 07:18:50;;;;;;;3.95;3.22;;;;;;;;;;5074254;28;20028;-74
2022/08/14 07:21:36;;;;;;;4.78;2.53;;;;;;;;;;5068655;28;20024;-72
2022/08/14 07:24:21;;;;;;;5.28;2.47;;;;;;;;;;5058706;28;20030;-79
2022/08/14 07:27:07;;;;;;;3.55;2.17;;;;;;;;;;5071762;28;20379;-78
2022/08/14 07:29:52;;;;;;;3.80;2.50;;;;;;;;;;5076375;28;20063;-79
2022/08/14 07:32:38;;;;;;;4.40;2.00;;;;;;;;;;5088319;28;20079;-81
2022/08/14 07:35:23;;;;;;;4.38;2.55;;;;;;;;;;5079012;28;20063;-80
2022/08/14 07:38:15;;;;;;;3.72;1.80;;;;;;;;;;5081465;28;20483;-73
2022/08/14 07:41:01;;;;;;;2.95;2.00;;;;;;;;;;5080900;28;20032;-81
2022/08/14 07:43:47;;;;;;;3.47;2.55;;;;;;;;;;5055505;28;20029;-81
2022/08/14 07:46:32;;;;;;;2.38;2.15;;;;;;;;;;5075438;28;20051;-79
2022/08/14 07:49:18;;;;;;;2.95;2.03;;;;;;;;;;5092512;28;20042;-80
2022/08/14 07:52:05;;;;;;;2.72;2.08;;;;;;;;;;5080761;28;20078;-82
2022/08/14 07:54:50;;;;;;;5.40;2.67;;;;;;;;;;5079383;28;20028;-82
2022/08/14 07:57:38;;;;;;;5.90;2.15;;;;;;;;;;5094134;28;20471;-75
2022/08/14 08:00:24;;;;;;;3.13;1.83;;;;;;;;;;5088153;28;20033;-72
2022/08/14 08:03:10;;;;;;;2.95;2.35;;;;;;;;;;5074240;28;20032;-73
2022/08/14 08:05:56;;;;;;;3.15;2.03;;;;;;;;;;5084890;28;20117;-73
2022/08/14 08:08:42;;;;;;;3.70;2.50;;;;;;;;;;5074517;28;20044;-72
2022/08/14 08:11:31;;;;;;;3.35;2.30;;;;;;;;;;5077784;28;20024;-73
2022/08/14 08:14:16;;;;;;;4.78;2.10;;;;;;;;;;5075806;28;20016;-74
2022/08/14 08:17:02;;;;;;;2.25;1.85;;;;;;;;;;5086950;28;20528;-74
2022/08/14 08:19:48;;;;;;;3.42;2.20;;;;;;;;;;5080208;28;20043;-76
2022/08/14 08:22:34;;;;;;;3.05;1.70;;;;;;;;;;5081268;28;20434;-77
2022/08/14 08:25:20;;;;;;;2.63;1.75;;;;;;;;;;5050685;28;20494;-78
2022/08/14 08:28:07;;;;;;;2.78;2.05;;;;;;;;;;5080323;28;20040;-77
2022/08/14 08:30:57;;;;;;;2.35;1.60;;;;;;;;;;5091839;28;20416;-79
2022/08/14 08:33:50;;;;;;;3.40;1.92;;;;;;;;;;5079418;28;20027;-75
2022/08/14 08:36:39;;;;;;;3.72;1.85;;;;;;;;;;5069201;28;20048;-82
2022/08/14 08:39:24;;;;;;;1.77;1.63;;;;;;;;;;5083344;28;20060;-82
2022/08/14 08:42:10;;;;;;;2.72;1.50;;;;;;;;;;5075395;28;20035;-81
2022/08/14 08:44:56;;;;;;;2.78;1.83;;;;;;;;;;5075703;28;20108;-80
2022/08/14 08:47:42;;;;;;;2.47;1.73;;;;;;;;;;5088809;28;20032;-82
2022/08/14 08:50:32;;;;;;;2.15;1.60;;;;;;;;;;5075280;28;20444;-83
2022/08/14 08:53:18;;;;;;;1.85;1.50;;;;;;;;;;5064551;28;20035;-78
2022/08/14 08:56:04;;;;;;;2.63;1.85;;;;;;;;;;5071180;28;20132;-89
2022/08/14 08:58:49;;;;;;;2.05;1.85;;;;;;;;;;5092087;28;20039;-88
2022/08/14 09:01:35;;;;;;;2.08;1.80;;;;;;;;;;5083963;28;20088;-87
2022/08/14 09:04:20;;;;;;;2.47;1.95;;;;;;;;;;5056971;28;20108;-87
2022/08/14 09:07:06;;;;;;;2.88;1.85;;;;;;;;;;5079460;28;20078;-88
2022/08/14 09:09:55;;;;;;;2.55;1.70;;;;;;;;;;5085102;28;20051;-74
2022/08/14 09:12:40;;;;;;;2.17;1.67;;;;;;;;;;5070098;28;20115;-75
2022/08/14 09:15:26;;;;;;;3.33;2.15;;;;;;;;;;5083362;28;20108;-77
2022/08/14 09:18:13;;;;;;;1.92;1.73;;;;;;;;;;5070959;28;20222;-78
2022/08/14 09:20:58;;;;;;;3.50;1.63;;;;;;;;;;5071925;28;20032;-79
2022/08/14 09:23:44;;;;;;;2.50;1.80;;;;;;;;;;5084568;28;20042;-77
2022/08/14 09:26:30;;;;;;;3.72;1.83;;;;;;;;;;5080287;28;20035;-78
2022/08/14 09:29:16;;;;;;;3.10;1.70;;;;;;;;;;5082657;28;20115;-77
2022/08/14 09:32:02;;;;;;;3.53;2.20;;;;;;;;;;5060785;28;20028;-76
2022/08/14 09:34:53;;;;;;;2.90;1.73;;;;;;;;;;5076750;28;20029;-74
2022/08/14 09:37:54;;;;;;;2.60;2.13;;;;;;;;;;5078729;28;20153;-75
2022/08/14 09:40:42;;;;;;;3.33;2.25;;;;;;;;;;5070193;28;20033;-75
2022/08/14 09:43:43;;;;;;;2.17;1.50;;;;;;;;;;5067082;28;20093;-75
2022/08/14 09:46:29;;;;;;;3.42;2.10;;;;;;;;;;5086030;28;20052;-75
2022/08/14 09:49:14;;;;;;;3.47;2.03;;;;;;;;;;5079950;28;20037;-78
2022/08/14 09:52:09;;;;;;;3.17;2.10;;;;;;;;;;5086896;28;20035;-76
2022/08/14 09:54:55;;;;;;;2.63;2.20;;;;;;;;;;5082335;28;20043;-76
2022/08/14 09:57:40;;;;;;;4.75;1.67;;;;;;;;;;5091392;28;20107;-74
2022/08/14 10:00:39;;;;;;;2.20;2.00;;;;;;;;;;5059790;28;20035;-74
2022/08/14 10:03:24;;;;;;;3.25;1.90;;;;;;;;;;5056826;28;20486;-75
2022/08/14 10:06:16;;;;;;;5.18;2.13;;;;;;;;;;5076011;28;20028;-87
2022/08/14 10:09:02;;;;;;;4.07;2.15;;;;;;;;;;5069855;28;20115;-81
2022/08/14 10:11:57;;;;;;;3.50;2.20;;;;;;;;;;5060222;28;20033;-79
2022/08/14 10:14:43;;;;;;;2.58;2.05;;;;;;;;;;5050404;28;20456;-82
2022/08/14 10:17:28;;;;;;;2.42;2.15;;;;;;;;;;5074880;28;20174;-81
2022/08/14 10:20:15;;;;;;;4.10;1.98;;;;;;;;;;5076993;28;20035;-82
2022/08/14 10:23:11;;;;;;;5.22;2.10;;;;;;;;;;5076816;28;20463;-83
2022/08/14 10:26:03;;;;;;;2.25;1.85;;;;;;;;;;5088902;28;20028;-85
2022/08/14 10:28:50;;;;;;;4.10;2.13;;;;;;;;;;5086224;28;20119;-74
2022/08/14 10:31:36;;;;;;;4.22;2.00;;;;;;;;;;5077900;28;20024;-73
2022/08/14 10:34:23;;;;;;;6.05;2.08;;;;;;;;;;5081832;28;20024;-74
2022/08/14 10:37:10;;;;;;;3.10;2.17;;;;;;;;;;5069812;28;20039;-73
2022/08/14 10:39:58;;;;;;;4.55;2.38;;;;;;;;;;5073260;28;20479;-73
2022/08/14 10:42:45;;;;;;;3.47;1.73;;;;;;;;;;5082947;28;20040;-74
2022/08/14 10:45:32;;;;;;;28.40;2.80;;;;;;;;;;5085687;28;20171;-73
2022/08/14 10:48:17;;;;;;;3.30;2.47;;;;;;;;;;5069507;28;20136;-73
2022/08/14 10:51:03;;;;;;;4.28;2.30;;;;;;;;;;5075222;28;20506;-74
2022/08/14 10:53:53;;;;;;;4.15;2.10;;;;;;;;;;5074228;28;20071;-73
2022/08/14 10:56:38;;;;;;;2.65;2.20;;;;;;;;;;5083935;28;20520;-74
2022/08/14 10:59:24;;;;;;;2.33;2.13;;;;;;;;;;5070798;28;20032;-74
2022/08/14 11:02:36;;;;;;;2.78;2.25;;;;;;;;;;5072363;28;20029;-74
2022/08/14 11:05:25;;;;;;;3.40;2.30;;;;;;;;;;5081313;28;20024;-73
2022/08/14 11:08:11;;;;;;;2.88;2.25;;;;;;;;;;5072795;28;20021;-73
2022/08/14 11:10:59;;;;;;;2.35;2.00;;;;;;;;;;5072861;28;20467;-73
2022/08/14 11:13:45;;;;;;;3.83;2.17;;;;;;;;;;5075505;28;20043;-72
2022/08/14 11:16:31;;;;;;;2.70;1.95;;;;;;;;;;5080460;28;20036;-74
2022/08/14 11:19:18;;;;;;;5.63;2.30;;;;;;;;;;5078124;28;20329;-74
2022/08/14 11:22:04;;;;;;;4.03;2.03;;;;;;;;;;5082192;28;20025;-73
2022/08/14 11:24:50;;;;;;;2.75;2.20;;;;;;;;;;5080105;28;20536;-72
2022/08/14 11:27:37;;;;;;;2.90;2.15;;;;;;;;;;5088418;28;20097;-72
2022/08/14 11:30:25;;;;;;;4.38;2.10;;;;;;;;;;5063280;28;20128;-73
2022/08/14 11:33:10;;;;;;;3.63;2.35;;;;;;;;;;5085667;28;20028;-73
2022/08/14 11:36:00;;;;;;;4.55;2.47;;;;;;;;;;5086105;28;20573;-73
2022/08/14 11:38:46;;;;;;;3.13;2.47;;;;;;;;;;5081157;28;20478;-75
2022/08/14 11:41:33;;;;;;;3.50;2.55;;;;;;;;;;5089453;28;20426;-74
2022/08/14 11:44:18;;;;;;;5.82;2.47;;;;;;;;;;5084803;28;20062;-73
2022/08/14 11:47:04;;;;;;;4.47;2.13;;;;;;;;;;5079536;28;20028;-74
2022/08/14 11:49:50;;;;;;;4.55;2.17;;;;;;;;;;5059874;28;20024;-74
2022/08/14 11:52:36;;;;;;;5.03;2.55;;;;;;;;;;5066093;28;20111;-74
2022/08/14 11:55:23;;;;;;;4.78;2.65;;;;;;;;;;5083744;28;20029;-74
2022/08/14 11:58:10;;;;;;;2.35;2.10;;;;;;;;;;5071168;28;20474;-73
2022/08/14 12:01:00;;;;;;;2.53;2.30;;;;;;;;;;5085310;28;20241;-79
2022/08/14 12:03:46;;;;;;;6.03;2.70;;;;;;;;;;5091634;28;20136;-79
2022/08/14 12:06:42;;;;;;;2.30;2.10;;;;;;;;;;5096269;28;20052;-79
2022/08/14 12:09:29;;;;;;;4.95;2.47;;;;;;;;;;5089321;28;20032;-79
2022/08/14 12:12:19;;;;;;;3.30;2.60;;;;;;;;;;5057222;28;20024;-79
2022/08/14 12:15:05;;;;;;;3.28;2.35;;;;;;;;;;5074530;28;20051;-74
2022/08/14 12:17:52;;;;;;;4.32;2.47;;;;;;;;;;5072753;28;20032;-74
2022/08/14 12:20:41;;;;;;;3.17;2.40;;;;;;;;;;5073006;28;20056;-74
2022/08/14 12:23:26;;;;;;;2.80;2.20;;;;;;;;;;5072628;28;20028;-74
2022/08/14 12:26:15;;;;;;;4.97;2.08;;;;;;;;;;5090763;28;20461;-74
2022/08/14 12:29:08;;;;;;;4.45;2.33;;;;;;;;;;5056720;28;20123;-76
2022/08/14 12:32:05;;;;;;;2.25;1.95;;;;;;;;;;5093919;28;20494;-75
2022/08/14 12:34:52;;;;;;;3.53;2.63;;;;;;;;;;5088580;28;20548;-71
2022/08/14 12:37:38;;;;;;;3.85;2.20;;;;;;;;;;5089988;28;20122;-75
2022/08/14 12:40:27;;;;;;;3.47;2.00;;;;;;;;;;5075333;28;20060;-76
2022/08/14 12:43:12;;;;;;;;;;;;;;;;;;5072304;28;20029;-76
2022/08/14 12:45:58;;;;;;;3.95;2.30;;;;;;;;;;5075924;28;19916;-76
2022/08/14 12:48:46;;;;;;;3.40;2.20;;;;;;;;;;5062847;28;20035;-77
2022/08/14 12:51:32;;;;;;;2.03;1.85;;;;;;;;;;5074038;28;20051;-75
2022/08/14 12:54:19;;;;;;;6.57;1.95;;;;;;;;;;5084250;28;20082;-74
2022/08/14 12:57:06;;;;;;;3.92;2.35;;;;;;;;;;5089002;28;20040;-74
2022/08/14 12:59:52;;;;;;;2.90;1.88;;;;;;;;;;5084127;28;20024;-74
2022/08/14 13:02:39;;;;;;;4.80;2.00;;;;;;;;;;5086088;28;20044;-74
2022/08/14 13:05:27;;;;;;;1.80;1.70;;;;;;;;;;5085373;28;20028;-74
2022/08/14 13:08:13;;;;;;;5.07;2.05;;;;;;;;;;5085255;28;20043;-74
2022/08/14 13:10:59;;;;;;;2.65;1.95;;;;;;;;;;5048633;28;20445;-74
2022/08/14 13:13:46;;;;;;;3.15;1.98;;;;;;;;;;5086050;28;20035;-78
2022/08/14 13:16:31;;;;;;;3.30;1.50;;;;;;;;;;5075919;28;20027;-80
2022/08/14 13:19:18;;;;;;;2.00;1.45;;;;;;;;;;5086598;28;20471;-80
2022/08/14 13:22:04;;;;;;;3.47;1.83;;;;;;;;;;5080961;28;20044;-82
2022/08/14 13:24:49;;;;;;;4.07;1.85;;;;;;;;;;5075260;28;20020;-80
2022/08/14 13:27:35;;;;;;;2.55;1.70;;;;;;;;;;5072091;28;20032;-80
2022/08/14 13:30:23;;;;;;;2.42;1.65;;;;;;;;;;5055910;28;20039;-75
2022/08/14 13:33:09;;;;;;;2.15;1.88;;;;;;;;;;5071983;28;20040;-72
2022/08/14 13:35:55;;;;;;;2.28;1.65;;;;;;;;;;5067041;28;20467;-74
2022/08/14 13:38:44;;;;;;;2.28;1.80;;;;;;;;;;5082387;28;20024;-73
2022/08/14 13:41:32;;;;;;;;;;;;;;;;;;5072727;28;20059;-73
2022/08/14 13:44:19;;;;;;;1.92;1.38;;;;;;;;;;5061867;28;19919;-73
2022/08/14 13:47:05;;;;;;;1.40;1.30;;;;;;;;;;5083088;28;20032;-74
2022/08/14 13:49:52;;;;;;;2.25;1.80;;;;;;;;;;5083104;28;20036;-75
2022/08/14 13:52:46;;;;;;;2.55;1.60;;;;;;;;;;5066249;28;20029;-75
2022/08/14 13:55:32;;;;;;;2.70;1.67;;;;;;;;;;5086298;28;20023;-76
2022/08/14 13:58:21;;;;;;;2.13;1.40;;;;;;;;;;5074726;28;20082;-77
2022/08/14 14:01:07;;;;;;;1.85;1.50;;;;;;;;;;5071001;28;20028;-76
2022/08/14 14:03:55;;;;;;;1.95;1.67;;;;;;;;;;5086941;28;20025;-77
2022/08/14 14:06:42;;;;;;;1.52;1.27;;;;;;;;;;5081915;28;20031;-80
2022/08/14 14:09:30;;;;;;;2.92;1.52;;;;;;;;;;5091232;28;20040;-79
2022/08/14 14:12:15;;;;;;;2.15;1.45;;;;;;;;;;5066787;28;20127;-78
2022/08/14 14:15:01;;;;;;;3.45;1.45;;;;;;;;;;5077946;28;20413;-80
2022/08/14 14:17:47;;;;;;;2.30;1.92;;;;;;;;;;5074316;28;20035;-80
2022/08/14 14:20:33;;;;;;;2.75;1.70;;;;;;;;;;5075380;28;20027;-81
2022/08/14 14:23:19;;;;;;;1.70;1.60;;;;;;;;;;5064016;28;20483;-81
2022/08/14 14:26:06;;;;;;;2.28;1.80;;;;;;;;;;5086828;28;20031;-75
2022/08/14 14:28:55;;;;;;;3.33;1.80;;;;;;;;;;5077628;28;20040;-74
2022/08/14 14:31:42;;;;;;;1.73;1.52;;;;;;;;;;5079986;28;20073;-74
2022/08/14 14:34:28;;;;;;;1.70;1.40;;;;;;;;;;5082743;28;20119;-75
2022/08/14 14:37:14;;;;;;;3.38;1.30;;;;;;;;;;5074864;28;20498;-75
2022/08/14 14:40:00;;;;;;;1.73;1.45;;;;;;;;;;5076495;28;20471;-74
2022/08/14 14:42:47;;;;;;;2.13;1.75;;;;;;;;;;5092096;28;20091;-72
2022/08/14 14:45:33;;;;;;;2.70;1.70;;;;;;;;;;5069909;28;20387;-75
2022/08/14 14:48:19;;;;;;;2.38;1.48;;;;;;;;;;5067569;28;20035;-74
2022/08/14 14:51:05;;;;;;;1.85;1.45;;;;;;;;;;5073823;28;20537;-76
2022/08/14 14:53:51;;;;;;;2.03;1.83;;;;;;;;;;5059257;28;20028;-77
2022/08/14 14:56:38;;;;;;;3.80;1.63;;;;;;;;;;5080640;28;20047;-76
2022/08/14 14:59:24;;;;;;;3.65;1.90;;;;;;;;;;5083556;28;20110;-74
2022/08/14 15:02:17;;;;;;;2.67;1.92;;;;;;;;;;5089489;28;20530;-88
2022/08/14 15:05:06;;;;;;;3.42;1.80;;;;;;;;;;5070688;28;20039;-75
2022/08/14 15:07:52;;;;;;;;;;;;;;;;;;5070888;28;20044;-73
2022/08/14 15:10:38;;;;;;;2.33;1.70;;;;;;;;;;5080540;28;20358;-73
2022/08/14 15:13:27;;;;;;;2.13;1.58;;;;;;;;;;5092245;28;20577;-73
2022/08/14 15:16:13;;;;;;;3.40;1.70;;;;;;;;;;5077044;28;20374;-71
2022/08/14 15:18:58;;;;;;;3.03;1.90;;;;;;;;;;5088836;28;20042;-72
2022/08/14 15:21:44;;;;;;;2.78;1.88;;;;;;;;;;5089751;28;20097;-72
2022/08/14 15:24:30;;;;;;;3.05;1.80;;;;;;;;;;5072904;28;20135;-72
2022/08/14 15:27:15;;;;;;;3.63;1.75;;;;;;;;;;5087013;28;20093;-73
2022/08/14 15:30:01;;;;;;;4.32;1.83;;;;;;;;;;5083598;28;20082;-72
2022/08/14 15:32:46;;;;;;;1.92;1.75;;;;;;;;;;5087858;28;20400;-72
2022/08/14 15:35:32;;;;;;;2.50;1.77;;;;;;;;;;5068284;28;20184;-72
2022/08/14 15:38:18;;;;;;;2.58;1.73;;;;;;;;;;5074455;28;20476;-86
2022/08/14 15:41:04;;;;;;;2.05;1.83;;;;;;;;;;5088213;28;20032;-74
2022/08/14 15:43:49;;;;;;;3.78;1.58;;;;;;;;;;5069096;28;20177;-74
2022/08/14 15:46:36;;;;;;;3.42;2.78;;;;;;;;;;5084821;28;20047;-73
2022/08/14 15:49:23;;;;;;;4.53;2.30;;;;;;;;;;5063570;28;20028;-73
2022/08/14 15:52:08;;;;;;;2.22;1.70;;;;;;;;;;5074317;28;20027;-73
2022/08/14 15:54:54;;;;;;;2.20;1.73;;;;;;;;;;5078653;28;20035;-73
2022/08/14 15:57:39;;;;;;;2.72;2.20;;;;;;;;;;5084826;28;20066;-81
2022/08/14 16:03:30;;;;;;;6.22;1.60;;;;;;;;;;5068558;28;20085;-75
2022/08/14 16:06:16;;;;;;;6.10;2.75;;;;;;;;;;5065466;28;20029;-75
2022/08/14 16:09:02;;;;;;;4.82;3.28;;;;;;;;;;5074415;28;20082;-74
2022/08/14 16:11:47;;;;;;;2.70;2.47;;;;;;;;;;5078138;28;20024;-76
2022/08/14 16:14:36;;;;;;;2.33;1.90;;;;;;;;;;5067404;28;20479;-76
2022/08/14 16:17:24;;;;;;;7.70;3.67;;;;;;;;;;5093219;28;20478;-85
2022/08/14 16:20:10;;;;;;;3.42;2.40;;;;;;;;;;5084774;28;20032;-85
2022/08/14 16:22:56;;;;;;;9.25;5.78;;;;;;;;;;5083605;28;20085;-83
2022/08/14 16:25:42;;;;;;;5.28;3.45;;;;;;;;;;5072355;28;21476;-83
2022/08/14 16:28:32;;;;;;;4.28;2.42;;;;;;;;;;5078671;28;20175;-83
2022/08/14 16:31:19;;;;;;;2.70;2.28;;;;;;;;;;5077684;28;20378;-85
2022/08/14 16:34:05;;;;;;;4.75;3.03;;;;;;;;;;5059669;28;20037;-75
2022/08/14 16:36:52;;;;;;;4.13;2.30;;;;;;;;;;5071267;28;20055;-74
2022/08/14 16:39:39;;;;;;;2.65;2.05;;;;;;;;;;5067740;28;20123;-73
2022/08/14 16:42:29;;;;;;;2.13;1.67;;;;;;;;;;5082951;28;20044;-74
2022/08/14 16:45:15;;;;;;;2.05;1.73;;;;;;;;;;5083984;28;20028;-73
2022/08/14 16:48:01;;;;;;;2.47;1.95;;;;;;;;;;5075032;28;20476;-73
2022/08/14 16:50:46;;;;;;;4.38;2.15;;;;;;;;;;5064485;28;20039;-73
2022/08/14 16:53:35;;;;;;;2.65;2.15;;;;;;;;;;5084797;28;20082;-82
2022/08/14 16:56:22;;;;;;;3.00;2.47;;;;;;;;;;5082290;28;20487;-83
2022/08/14 16:59:08;;;;;;;3.58;2.03;;;;;;;;;;5076399;28;20039;-82
2022/08/14 17:01:57;;;;;;;5.40;1.80;;;;;;;;;;5078300;28;20037;-82